Flight Track Log - Related Links

Times and Time Zones

All times are in EDT time to prevent confusion due to time zone crossing. See the DAL8945 flight status page for this flight to view local times or setup timezone preferences in your user account.

Time Position Orientation Groundspeed Altitude Reporting Facility
EDT Latitude Longitude Course Direction KTS MPH feet Rate Location/Type
Fri 12:24:23 AM 40.8128 -112.0000 297° West 142 163 5,600  Level Salt Lake Center
Fri 12:25:42 AM 40.8442 -112.0828 296° West 217 250 8,400 2,607 Climbing Salt Lake Center
Fri 12:27:11 AM 40.8917 -112.2133 316° Northwest 268 308 12,900 2,861 Climbing Salt Lake Center
Fri 12:28:13 AM 40.9528 -112.2919 321° Northwest 309 356 15,600 2,732 Climbing Salt Lake Center
Fri 12:29:14 AM 41.0247 -112.3700 307° West 331 381 18,500 2,537 Climbing Salt Lake Center
Fri 12:30:16 AM 41.0825 -112.4700 307° West 340 391 20,800 1,902 Climbing Salt Lake Center
Fri 12:31:17 AM 41.1442 -112.5778 307° West 360 414 22,400 1,707 Climbing Salt Lake Center
Fri 12:32:19 AM 41.2125 -112.6989 307° West 403 464 24,300 1,805 Climbing Salt Lake Center
Fri 12:33:20 AM 41.2822 -112.8200 307° West 409 471 26,100 1,918 Climbing Salt Lake Center
Fri 12:34:21 AM 41.3550 -112.9472 306° West 425 489 28,200 1,463 Climbing Salt Lake Center
Fri 12:35:23 AM 41.4258 -113.0756 306° West 426 490 29,100 1,220 Climbing Salt Lake Center
Fri 12:36:24 AM 41.5014 -113.2125 307° West 450 518 30,700 2,293 Climbing Salt Lake Center
Fri 12:37:26 AM 41.5764 -113.3444 308° West 447 514 33,800 2,000 Climbing Salt Lake Center
Fri 12:38:27 AM 41.6467 -113.4647 306° West 416 479 34,800 1,024 Climbing Salt Lake Center
Fri 12:39:29 AM 41.7139 -113.5875 306° West 409 471 35,900 919 Climbing Salt Lake Center
Fri 12:40:31 AM 41.7950 -113.7350 307° West 414 476 36,700 683 Climbing Salt Lake Center
Fri 12:41:32 AM 41.8664 -113.8636 306° West 421 484 37,300 634 Climbing Salt Lake Center
Fri 12:42:34 AM 41.9383 -113.9964 306° West 431 496 38,000 341 Climbing Salt Lake Center
Fri 12:43:35 AM 42.0092 -114.1258 306° West 429 494 38,000  Level Salt Lake Center
Fri 12:44:37 AM 42.0792 -114.2567 307° West 427 491 38,000  Level Salt Lake Center
Fri 12:45:38 AM 42.1531 -114.3900 306° West 438 504 38,000  Level Salt Lake Center
Fri 12:46:40 AM 42.2236 -114.5217 306° West 431 496 38,000  Level Salt Lake Center
Fri 12:47:41 AM 42.2947 -114.6536 306° West 431 496 38,000  Level Salt Lake Center
Fri 12:48:43 AM 42.3650 -114.7864 305° West 430 495 38,000  Level Salt Lake Center
Fri 12:49:44 AM 42.4422 -114.9347 305° West 431 496 38,000  Level Salt Lake Center
Fri 12:50:45 AM 42.5086 -115.0614 306° West 431 496 38,000  Level Salt Lake Center
Fri 12:51:47 AM 42.5742 -115.1861 305° West 426 490 38,000  Level Salt Lake Center
Fri 12:52:48 AM 42.6511 -115.3331 306° West 427 491 38,000  Level Salt Lake Center
Fri 12:53:50 AM 42.7183 -115.4608 305° West 431 496 38,000  Level Salt Lake Center
Fri 12:54:51 AM 42.7958 -115.6111 305° West 433 498 38,000 49 Level Salt Lake Center
Fri 12:55:52 AM 42.8628 -115.7403 305° West 435 501 38,100  Climbing Salt Lake Center
Fri 12:56:54 AM 42.9289 -115.8692 305° West 433 498 38,000 -49 Descending Salt Lake Center
Fri 12:57:55 AM 43.0061 -116.0203 305° West 433 498 38,000  Level Salt Lake Center
Fri 12:58:57 AM 43.0717 -116.1497 305° West 432 497 38,000  Level Salt Lake Center
Fri 12:59:58 AM 43.1478 -116.3003 304° West 430 495 38,000  Level Salt Lake Center
Fri 01:00:59 AM 43.2128 -116.4308 304° West 432 497 38,000  Level Salt Lake Center
Fri 01:02:01 AM 43.2778 -116.5611 305° West 432 497 38,000  Level Salt Lake Center
Fri 01:03:02 AM 43.3539 -116.7128 304° West 431 496 38,000  Level Salt Lake Center
Fri 01:04:03 AM 43.4186 -116.8436 305° West 431 496 38,000  Level Salt Lake Center
Fri 01:05:05 AM 43.4847 -116.9758 304° West 435 501 38,000  Level Salt Lake Center
Fri 01:06:06 AM 43.5594 -117.1281 304° West 429 494 38,000  Level Salt Lake Center
Fri 01:07:07 AM 43.6242 -117.2597 304° West 431 496 38,000  Level Salt Lake Center
Fri 01:08:08 AM 43.6983 -117.4125 304° West 429 494 38,000  Level Salt Lake Center
Fri 01:09:10 AM 43.7611 -117.5419 304° West 424 488 38,000  Level Salt Lake Center
Fri 01:10:11 AM 43.8239 -117.6731 304° West 426 490 38,000  Level Salt Lake Center
Fri 01:11:12 AM 43.8978 -117.8261 304° West 426 490 38,000 49 Level Salt Lake Center
Fri 01:12:13 AM 43.9617 -117.9597 304° West 431 496 38,100  Climbing Salt Lake Center
Fri 01:13:15 AM 44.0247 -118.0917 304° West 429 494 38,000 -49 Descending Salt Lake Center
Fri 01:14:16 AM 44.0986 -118.2450 304° West 427 491 38,000  Level Salt Lake Center
Fri 01:15:17 AM 44.1617 -118.3772 303° West 427 491 38,000  Level Salt Lake Center
Fri 01:16:18 AM 44.2308 -118.5256 303° West 429 494 38,000  Level Salt Lake Center
Fri 01:17:19 AM 44.2964 -118.6650 303° West 431 496 38,000  Level Salt Lake Center
Fri 01:18:20 AM 44.3614 -118.8056 303° West 433 498 38,000  Level Salt Lake Center
Fri 01:19:21 AM 44.4258 -118.9450 303° West 430 495 38,000  Level Salt Lake Center
Fri 01:20:22 AM 44.4897 -119.0822 302° West 426 490 38,000  Level Salt Lake Center
Fri 01:21:23 AM 44.5508 -119.2183 303° West 420 483 38,000  Level Salt Lake Center
Fri 01:22:24 AM 44.6139 -119.3542 302° West 418 481 38,000  Level Salt Lake Center
Fri 01:23:26 AM 44.6756 -119.4911 303° West 417 480 38,000  Level Salt Lake Center
Fri 01:24:27 AM 44.7381 -119.6283 302° West 418 481 38,000  Level Salt Lake Center
Fri 01:25:28 AM 44.8128 -119.7961 303° West 421 484 38,000  Level Salt Lake Center
Fri 01:26:29 AM 44.8647 -119.9100 302° West 425 489 38,000  Level Salt Lake Center
Fri 01:27:37 AM 44.9442 -120.0897 302° West 425 489 38,000  Level Seattle Center
Fri 01:28:37 AM 45.0042 -120.2258 302° West 423 487 38,000  Level Seattle Center
Fri 01:29:38 AM 45.0656 -120.3669 302° West 422 486 38,000 -446 Level Seattle Center
Fri 01:30:38 AM 45.1269 -120.5083 301° West 423 487 37,100 -1,686 Descending Seattle Center
Fri 01:31:39 AM 45.1869 -120.6478 293° West 420 483 34,600 -2,557 Descending Seattle Center
Fri 01:32:40 AM 45.2311 -120.7939 295° West 403 464 31,900 -2,628 Descending Seattle Center
Fri 01:33:40 AM 45.2753 -120.9300 294° West 388 447 29,300 -2,926 Descending Seattle Center
Fri 01:34:41 AM 45.3181 -121.0658 294° West 381 438 26,000 -3,471 Descending Seattle Center
Fri 01:35:41 AM 45.3669 -121.2203 294° West 362 417 22,300 -3,421 Descending Seattle Center
Fri 01:36:42 AM 45.4072 -121.3486 294° West 357 411 19,100 -2,902 Descending Seattle Center
Fri 01:37:43 AM 45.4472 -121.4778 287° West 358 412 16,400 -2,182 Descending Seattle Center
Fri 01:38:43 AM 45.4739 -121.5989 282° West 327 376 14,700 -1,636 Descending Seattle Center
Fri 01:39:44 AM 45.4894 -121.7031 269° West 275 316 13,100 -2,115 Descending Seattle Center
Fri 01:40:45 AM 45.4883 -121.7989 256° West 247 284 10,400 -2,281 Descending Seattle Center
Fri 01:41:45 AM 45.4711 -121.8942 258° West 248 285 8,500 -1,686 Descending Seattle Center
Fri 01:42:46 AM 45.4583 -121.9806 268° West 245 282 7,000 -1,091 Descending Seattle Center
Fri 01:43:46 AM 45.4558 -122.0733 278° West 239 275 6,300 -793 Descending Seattle Center
Fri 01:44:47 AM 45.4642 -122.1633 282° West 234 269 5,400 -1,033 Descending Seattle Center
Fri 01:45:48 AM 45.4750 -122.2386 284° West 216 249 4,200 -1,091 Descending Seattle Center
Fri 01:46:48 AM 45.4911 -122.3344 301° West 208 239 3,200 -744 Descending Seattle Center
Fri 01:47:49 AM 45.5167 -122.3950 300° West 189 217 2,700 -738 Descending Seattle Center
Fri 01:48:50 AM 45.5428 -122.4603 298° West 190 219 1,700 -843 Descending Seattle Center
Fri 01:49:50 AM 45.5597 -122.5050 299° West 156 180 1,000 -694 Descending Seattle Center
Fri 01:50:51 AM 45.5761 -122.5481 299° West 141 162 300 -689 Descending Seattle Center

Login

Don't have an account? Register now (free) for customized features, flight alerts, and more!